createdAt,value
2017-07-03T00:00:42.509Z,1012.41
2017-07-03T00:01:38.750Z,1012.46
2017-07-03T00:02:34.986Z,1012.31
2017-07-03T00:03:31.206Z,1012.43
2017-07-03T00:04:27.430Z,1012.47
2017-07-03T00:05:23.657Z,1012.42
2017-07-03T00:06:19.890Z,1012.40
2017-07-03T00:07:16.135Z,1012.37
2017-07-03T00:08:12.397Z,1012.41
2017-07-03T00:09:08.626Z,1012.40
2017-07-03T00:10:06.334Z,1012.44
2017-07-03T00:11:02.583Z,1012.45
2017-07-03T00:11:58.822Z,1012.45
2017-07-03T00:12:55.079Z,1012.44
2017-07-03T00:13:51.319Z,1012.45
2017-07-03T00:14:47.542Z,1012.46
2017-07-03T00:15:43.774Z,1012.38
2017-07-03T00:16:40.006Z,1012.42
2017-07-03T00:17:36.234Z,1012.46
2017-07-03T00:18:32.465Z,1012.42
2017-07-03T00:19:28.713Z,1012.42
2017-07-03T00:20:24.948Z,1012.47
2017-07-03T00:21:21.183Z,1012.49
2017-07-03T00:22:17.410Z,1012.44
2017-07-03T00:23:13.650Z,1012.38
2017-07-03T00:24:09.920Z,1012.41
2017-07-03T00:25:06.159Z,1012.42
2017-07-03T00:26:02.377Z,1012.45
2017-07-03T00:26:58.598Z,1012.43
2017-07-03T00:27:54.843Z,1012.42
2017-07-03T00:28:51.082Z,1012.42
2017-07-03T00:29:47.318Z,1012.37
2017-07-03T00:30:43.551Z,1012.37
2017-07-03T00:31:39.782Z,1012.43
2017-07-03T00:32:36.010Z,1012.33
2017-07-03T00:33:32.242Z,1012.34
2017-07-03T00:34:28.511Z,1012.35
2017-07-03T00:35:24.738Z,1012.34
2017-07-03T00:36:20.974Z,1012.39
2017-07-03T00:37:17.198Z,1012.37
2017-07-03T00:38:13.427Z,1012.34
2017-07-03T00:39:09.666Z,1012.35
2017-07-03T00:40:05.910Z,1012.45
2017-07-03T00:41:02.146Z,1012.40
2017-07-03T00:41:58.384Z,1012.42
2017-07-03T00:42:54.614Z,1012.38
2017-07-03T00:43:50.853Z,1012.41
2017-07-03T00:44:47.127Z,1012.38
2017-07-03T00:45:43.378Z,1012.34
2017-07-03T00:46:39.610Z,1012.34
2017-07-03T00:47:35.846Z,1012.36
2017-07-03T00:48:32.070Z,1012.40
2017-07-03T00:49:28.311Z,1012.43
2017-07-03T00:50:24.534Z,1012.30
2017-07-03T00:51:20.774Z,1012.31
2017-07-03T00:52:16.995Z,1012.35
2017-07-03T00:53:13.233Z,1012.33
2017-07-03T00:54:09.462Z,1012.31
2017-07-03T00:55:05.694Z,1012.41
2017-07-03T00:56:01.936Z,1012.36
2017-07-03T00:56:58.171Z,1012.33
2017-07-03T00:57:54.394Z,1012.37
2017-07-03T00:58:50.626Z,1012.32
2017-07-03T00:59:46.847Z,1012.37
2017-07-03T01:00:43.073Z,1012.36
2017-07-03T01:01:39.313Z,1012.39
2017-07-03T01:02:35.525Z,1012.34
2017-07-03T01:03:31.758Z,1012.40
2017-07-03T01:04:27.995Z,1012.33
2017-07-03T01:05:24.214Z,1012.27
2017-07-03T01:06:20.463Z,1012.34
2017-07-03T01:07:16.699Z,1012.29
2017-07-03T01:08:12.925Z,1012.29
2017-07-03T01:09:09.153Z,1012.35
2017-07-03T01:10:05.382Z,1012.33
2017-07-03T01:11:01.601Z,1012.32
2017-07-03T01:11:57.865Z,1012.33
2017-07-03T01:12:54.099Z,1012.31
2017-07-03T01:13:50.321Z,1012.27
2017-07-03T01:14:46.542Z,1012.29
2017-07-03T01:15:42.762Z,1012.27
2017-07-03T01:16:38.989Z,1012.27
2017-07-03T01:17:35.238Z,1012.26
2017-07-03T01:18:31.467Z,1012.30
2017-07-03T01:19:27.682Z,1012.30
2017-07-03T01:20:23.902Z,1012.42
2017-07-03T01:21:20.123Z,1012.34
2017-07-03T01:22:16.374Z,1012.38
2017-07-03T01:23:12.606Z,1012.31
2017-07-03T01:24:08.825Z,1012.36
2017-07-03T01:25:05.090Z,1012.28
2017-07-03T01:26:01.310Z,1012.27
2017-07-03T01:26:57.551Z,1012.31
2017-07-03T01:27:53.786Z,1012.28
2017-07-03T01:28:50.026Z,1012.31
2017-07-03T01:29:46.245Z,1012.30
2017-07-03T01:30:42.482Z,1012.38
2017-07-03T01:31:38.706Z,1012.36
2017-07-03T01:32:34.961Z,1012.36
2017-07-03T01:33:31.190Z,1012.33
2017-07-03T01:34:27.419Z,1012.33
2017-07-03T01:35:23.642Z,1012.31
2017-07-03T01:36:19.871Z,1012.36
2017-07-03T01:37:16.115Z,1012.43
2017-07-03T01:38:12.367Z,1012.34
2017-07-03T01:39:08.610Z,1012.38
2017-07-03T01:40:04.826Z,1012.37
2017-07-03T01:41:01.050Z,1012.38
2017-07-03T01:41:57.266Z,1012.38
2017-07-03T01:42:53.486Z,1012.40
2017-07-03T01:43:49.734Z,1012.40
2017-07-03T01:44:45.976Z,1012.40
2017-07-03T01:45:42.203Z,1012.35
2017-07-03T01:46:38.426Z,1012.34
2017-07-03T01:47:34.670Z,1012.36
2017-07-03T01:48:30.922Z,1012.29
2017-07-03T01:49:27.163Z,1012.43
2017-07-03T01:50:23.382Z,1012.43
2017-07-03T01:51:19.598Z,1012.47
2017-07-03T01:52:15.839Z,1012.41
2017-07-03T01:53:12.169Z,1012.43
2017-07-03T01:54:08.431Z,1012.47
2017-07-03T01:55:04.659Z,1012.46
2017-07-03T01:56:00.878Z,1012.49
2017-07-03T01:56:57.103Z,1012.42
2017-07-03T01:57:53.335Z,1012.53
2017-07-03T01:58:49.564Z,1012.44
2017-07-03T01:59:45.799Z,1012.48
2017-07-03T02:00:42.026Z,1012.42
2017-07-03T02:01:38.242Z,1012.47
2017-07-03T02:02:34.467Z,1012.50
2017-07-03T02:03:30.714Z,1012.46
2017-07-03T02:04:26.951Z,1012.46
2017-07-03T02:05:23.170Z,1012.49
2017-07-03T02:06:19.386Z,1012.48
2017-07-03T02:07:15.627Z,1012.50
2017-07-03T02:08:11.854Z,1012.42
2017-07-03T02:09:08.084Z,1012.50
2017-07-03T02:10:04.326Z,1012.46
2017-07-03T02:11:00.567Z,1012.48
2017-07-03T02:11:56.799Z,1012.52
2017-07-03T02:12:53.063Z,1012.47
2017-07-03T02:13:49.338Z,1012.45
2017-07-03T02:14:45.557Z,1012.50
2017-07-03T02:15:41.798Z,1012.56
2017-07-03T02:16:38.014Z,1012.50
2017-07-03T02:17:34.230Z,1012.53
2017-07-03T02:18:30.470Z,1012.49
2017-07-03T02:19:26.699Z,1012.45
2017-07-03T02:20:22.938Z,1012.51
2017-07-03T02:21:19.178Z,1012.55
2017-07-03T02:22:15.393Z,1012.56
2017-07-03T02:23:11.614Z,1012.50
2017-07-03T02:24:07.850Z,1012.56
2017-07-03T02:25:04.090Z,1012.56
2017-07-03T02:26:00.322Z,1012.64
2017-07-03T02:26:56.562Z,1012.63
2017-07-03T02:27:52.791Z,1012.57
2017-07-03T02:28:49.009Z,1012.58
2017-07-03T02:29:45.239Z,1012.66
2017-07-03T02:30:41.459Z,1012.55
2017-07-03T02:31:37.698Z,1012.58
2017-07-03T02:32:33.922Z,1012.64
2017-07-03T02:33:30.155Z,1012.60
2017-07-03T02:34:26.386Z,1012.60
2017-07-03T02:35:22.618Z,1012.61
2017-07-03T02:36:18.847Z,1012.69
2017-07-03T02:37:15.094Z,1012.61
2017-07-03T02:38:11.321Z,1012.65
2017-07-03T02:39:07.554Z,1012.73
2017-07-03T02:40:03.782Z,1012.63
2017-07-03T02:41:00.014Z,1012.71
2017-07-03T02:41:56.254Z,1012.62
2017-07-03T02:42:52.480Z,1012.66
2017-07-03T02:43:48.699Z,1012.65
2017-07-03T02:44:44.926Z,1012.70
2017-07-03T02:45:41.146Z,1012.67
2017-07-03T02:46:37.362Z,1012.74
2017-07-03T02:47:33.611Z,1012.68
2017-07-03T02:48:29.846Z,1012.65
2017-07-03T02:49:26.072Z,1012.64
2017-07-03T02:50:22.297Z,1012.65
2017-07-03T02:51:18.527Z,1012.60
2017-07-03T02:52:14.770Z,1012.63
2017-07-03T02:53:10.987Z,1012.62
2017-07-03T02:54:07.208Z,1012.60
2017-07-03T02:55:03.437Z,1012.62
2017-07-03T02:55:59.686Z,1012.58
2017-07-03T02:56:55.910Z,1012.62
2017-07-03T02:57:52.144Z,1012.58
2017-07-03T02:58:48.374Z,1012.68
2017-07-03T02:59:44.595Z,1012.61
2017-07-03T03:00:40.830Z,1012.57
2017-07-03T03:01:37.050Z,1012.65
2017-07-03T03:02:33.270Z,1012.65
2017-07-03T03:03:29.514Z,1012.67
2017-07-03T03:04:25.735Z,1012.64
2017-07-03T03:05:21.966Z,1012.64
2017-07-03T03:06:18.196Z,1012.73
2017-07-03T03:07:14.415Z,1012.71
2017-07-03T03:08:10.654Z,1012.69
2017-07-03T03:09:06.883Z,1012.68
2017-07-03T03:10:03.110Z,1012.76
2017-07-03T03:10:59.330Z,1012.76
2017-07-03T03:11:55.546Z,1012.75
2017-07-03T03:12:51.764Z,1012.78
2017-07-03T03:13:48.003Z,1012.80
2017-07-03T03:14:44.238Z,1012.82
2017-07-03T03:15:40.466Z,1012.82
2017-07-03T03:16:36.689Z,1012.79
2017-07-03T03:17:32.901Z,1012.79
2017-07-03T03:18:29.152Z,1012.80
2017-07-03T03:19:25.378Z,1012.86
2017-07-03T03:20:21.611Z,1012.84
2017-07-03T03:21:17.826Z,1012.83
2017-07-03T03:22:14.045Z,1012.88
2017-07-03T03:23:10.259Z,1012.81
2017-07-03T03:24:06.507Z,1012.85
2017-07-03T03:25:02.739Z,1012.88
2017-07-03T03:25:58.962Z,1012.85
2017-07-03T03:26:55.182Z,1012.88
2017-07-03T03:27:51.414Z,1012.92
2017-07-03T03:28:47.658Z,1012.88
2017-07-03T03:29:43.875Z,1012.94
2017-07-03T03:30:40.094Z,1012.88
2017-07-03T03:31:36.330Z,1012.89
2017-07-03T03:32:32.562Z,1012.87
2017-07-03T03:33:28.782Z,1012.86
2017-07-03T03:34:25.022Z,1012.93
2017-07-03T03:35:21.242Z,1012.88
2017-07-03T03:36:17.463Z,1012.87
2017-07-03T03:37:13.678Z,1012.86
2017-07-03T03:38:09.897Z,1012.88
2017-07-03T03:39:06.122Z,1012.95
2017-07-03T03:40:02.362Z,1012.93
2017-07-03T03:40:58.581Z,1012.94
2017-07-03T03:41:54.821Z,1012.94
2017-07-03T03:42:51.041Z,1012.95
2017-07-03T03:43:47.275Z,1013.00
2017-07-03T03:44:43.498Z,1012.92
2017-07-03T03:45:39.735Z,1012.96
2017-07-03T03:46:35.961Z,1012.99
2017-07-03T03:47:32.183Z,1013.05
2017-07-03T03:48:28.408Z,1013.03
2017-07-03T03:49:24.626Z,1013.02
2017-07-03T03:50:20.883Z,1012.97
2017-07-03T03:51:17.099Z,1013.08
2017-07-03T03:52:13.322Z,1013.05
2017-07-03T03:53:09.559Z,1013.12
2017-07-03T03:54:05.777Z,1013.08
2017-07-03T03:55:01.998Z,1013.09
2017-07-03T03:55:58.251Z,1013.14
2017-07-03T03:56:54.496Z,1013.11
2017-07-03T03:57:50.727Z,1013.15
2017-07-03T03:58:46.950Z,1013.14
2017-07-03T03:59:43.166Z,1013.13
2017-07-03T04:00:39.386Z,1013.09
2017-07-03T04:01:35.622Z,1013.12
2017-07-03T04:02:31.841Z,1013.09
2017-07-03T04:03:28.066Z,1013.09
2017-07-03T04:04:24.287Z,1013.11
2017-07-03T04:05:20.514Z,1013.12
2017-07-03T04:06:16.762Z,1013.15
2017-07-03T04:07:12.978Z,1013.12
2017-07-03T04:08:09.211Z,1013.06
2017-07-03T04:09:05.444Z,1013.08
2017-07-03T04:10:01.678Z,1013.09
2017-07-03T04:10:57.905Z,1013.10
2017-07-03T04:11:54.161Z,1013.07
2017-07-03T04:12:50.387Z,1013.07
2017-07-03T04:13:46.611Z,1013.02
2017-07-03T04:14:42.839Z,1013.03
2017-07-03T04:15:39.054Z,1013.04
2017-07-03T04:16:36.432Z,1013.06
2017-07-03T04:17:32.667Z,1013.09
2017-07-03T04:18:28.891Z,1013.06
2017-07-03T04:19:25.115Z,1013.06
2017-07-03T04:20:21.346Z,1013.06
2017-07-03T04:21:17.578Z,1013.06
2017-07-03T04:22:13.817Z,1013.02
2017-07-03T04:23:10.038Z,1013.09
2017-07-03T04:24:06.258Z,1013.07
2017-07-03T04:25:02.493Z,1013.04
2017-07-03T04:25:58.794Z,1013.06
2017-07-03T04:26:55.062Z,1013.05
2017-07-03T04:27:51.350Z,1013.06
2017-07-03T04:28:47.632Z,1013.16
2017-07-03T04:29:43.915Z,1013.09
2017-07-03T04:30:40.134Z,1013.02
2017-07-03T04:31:36.374Z,1013.06
2017-07-03T04:32:32.602Z,1013.07
2017-07-03T04:33:28.846Z,1013.02
2017-07-03T04:34:25.061Z,1013.09
2017-07-03T04:35:21.278Z,1013.09
2017-07-03T04:36:17.493Z,1013.07
2017-07-03T04:37:13.734Z,1013.11
2017-07-03T04:38:09.954Z,1013.09
2017-07-03T04:39:06.194Z,1013.08
2017-07-03T04:40:02.417Z,1013.19
2017-07-03T04:40:58.630Z,1013.13
2017-07-03T04:41:54.880Z,1013.11
2017-07-03T04:42:51.126Z,1013.09
2017-07-03T04:43:47.347Z,1013.16
2017-07-03T04:44:43.580Z,1013.17
2017-07-03T04:45:39.810Z,1013.12
2017-07-03T04:46:36.034Z,1013.16
2017-07-03T04:47:32.257Z,1013.18
2017-07-03T04:48:28.483Z,1013.15
2017-07-03T04:49:24.730Z,1013.22
2017-07-03T04:50:21.002Z,1013.19
2017-07-03T04:51:17.227Z,1013.27
2017-07-03T04:52:13.454Z,1013.21
2017-07-03T04:53:09.678Z,1013.24
2017-07-03T04:54:05.926Z,1013.18
2017-07-03T04:55:02.166Z,1013.23
2017-07-03T04:55:58.393Z,1013.17
2017-07-03T04:56:54.619Z,1013.18
2017-07-03T04:57:50.850Z,1013.18
2017-07-03T04:58:47.070Z,1013.17
2017-07-03T04:59:43.322Z,1013.20
2017-07-03T05:00:39.548Z,1013.22
2017-07-03T05:01:35.782Z,1013.21
2017-07-03T05:02:32.554Z,1013.18
2017-07-03T05:03:28.783Z,1013.17
2017-07-03T05:04:25.027Z,1013.22
2017-07-03T05:05:21.274Z,1013.13
2017-07-03T05:06:17.506Z,1013.22
2017-07-03T05:07:13.741Z,1013.21
2017-07-03T05:08:09.978Z,1013.23
2017-07-03T05:09:06.261Z,1013.20
2017-07-03T05:10:02.498Z,1013.21
2017-07-03T05:10:58.739Z,1013.23
2017-07-03T05:11:54.974Z,1013.24
2017-07-03T05:12:51.213Z,1013.21
2017-07-03T05:13:47.452Z,1013.27
2017-07-03T05:14:43.691Z,1013.29
2017-07-03T05:15:39.922Z,1013.30
2017-07-03T05:16:36.166Z,1013.22
2017-07-03T05:17:32.390Z,1013.24
2017-07-03T05:18:28.702Z,1013.19
2017-07-03T05:19:24.942Z,1013.15
2017-07-03T05:20:21.187Z,1013.13
2017-07-03T05:21:17.454Z,1013.11
2017-07-03T05:22:13.674Z,1013.16
2017-07-03T05:23:09.918Z,1013.16
2017-07-03T05:24:06.154Z,1013.08
2017-07-03T05:25:02.430Z,1013.18
2017-07-03T05:25:58.654Z,1013.20
2017-07-03T05:26:54.898Z,1013.15
2017-07-03T05:27:51.141Z,1013.25
2017-07-03T05:28:47.374Z,1013.19
2017-07-03T05:29:43.622Z,1013.19
2017-07-03T05:30:39.862Z,1013.27
2017-07-03T05:31:36.190Z,1013.22
2017-07-03T05:32:32.462Z,1013.25
2017-07-03T05:33:28.703Z,1013.24
2017-07-03T05:34:24.978Z,1013.28
2017-07-03T05:35:21.214Z,1013.33
2017-07-03T05:36:17.441Z,1013.28
2017-07-03T05:37:13.694Z,1013.31
2017-07-03T05:38:09.933Z,1013.33
2017-07-03T05:39:06.208Z,1013.25
2017-07-03T05:40:02.468Z,1013.31
2017-07-03T05:40:58.702Z,1013.41
2017-07-03T05:41:54.939Z,1013.39
2017-07-03T05:42:51.205Z,1013.36
2017-07-03T05:43:52.129Z,1013.37
2017-07-03T05:44:53.058Z,1013.30
2017-07-03T05:45:49.286Z,1013.41
2017-07-03T05:46:45.519Z,1013.31
2017-07-03T05:47:41.762Z,1013.39
2017-07-03T05:48:38.031Z,1013.37
2017-07-03T05:49:34.254Z,1013.41
2017-07-03T05:50:30.478Z,1013.35
2017-07-03T05:51:26.707Z,1013.38
2017-07-03T05:52:22.931Z,1013.42
2017-07-03T05:53:19.183Z,1013.45
2017-07-03T05:54:15.426Z,1013.36
2017-07-03T05:55:11.662Z,1013.40
2017-07-03T05:56:07.922Z,1013.39
2017-07-03T05:57:04.155Z,1013.31
2017-07-03T05:58:00.386Z,1013.43
2017-07-03T05:58:56.635Z,1013.40
2017-07-03T05:59:52.918Z,1013.38
2017-07-03T06:00:49.193Z,1013.34
2017-07-03T06:01:45.466Z,1013.37
2017-07-03T06:02:41.703Z,1013.39
2017-07-03T06:03:38.011Z,1013.36
2017-07-03T06:04:34.294Z,1013.38
2017-07-03T06:05:30.538Z,1013.48
2017-07-03T06:06:26.766Z,1013.48
2017-07-03T06:07:23.002Z,1013.40
2017-07-03T06:08:19.239Z,1013.42
2017-07-03T06:09:15.486Z,1013.49
2017-07-03T06:10:11.705Z,1013.47
2017-07-03T06:11:07.931Z,1013.48
2017-07-03T06:12:04.169Z,1013.47
2017-07-03T06:13:00.399Z,1013.39
2017-07-03T06:13:56.626Z,1013.41
2017-07-03T06:14:52.877Z,1013.43
2017-07-03T06:15:49.122Z,1013.42
2017-07-03T06:16:45.354Z,1013.44
2017-07-03T06:17:41.577Z,1013.43
2017-07-03T06:18:37.815Z,1013.44
2017-07-03T06:19:34.035Z,1013.39
2017-07-03T06:20:30.274Z,1013.39
2017-07-03T06:21:26.510Z,1013.40
2017-07-03T06:22:22.749Z,1013.40
2017-07-03T06:23:18.971Z,1013.40
2017-07-03T06:24:15.206Z,1013.42
2017-07-03T06:25:11.451Z,1013.44
2017-07-03T06:26:07.726Z,1013.43
2017-07-03T06:27:03.918Z,1013.41
2017-07-03T06:28:00.146Z,1013.43
2017-07-03T06:28:56.396Z,1013.38
2017-07-03T06:29:52.629Z,1013.42
2017-07-03T06:30:48.873Z,1013.46
2017-07-03T06:31:45.100Z,1013.45
2017-07-03T06:32:41.326Z,1013.40
2017-07-03T06:33:37.570Z,1013.45
2017-07-03T06:34:33.802Z,1013.44
2017-07-03T06:35:30.067Z,1013.38
2017-07-03T06:36:26.306Z,1013.45
2017-07-03T06:37:22.546Z,1013.39
2017-07-03T06:38:18.819Z,1013.47
2017-07-03T06:39:15.959Z,1013.39
2017-07-03T06:40:12.203Z,1013.41
2017-07-03T06:41:08.454Z,1013.45
2017-07-03T06:42:04.680Z,1013.42
2017-07-03T06:43:00.914Z,1013.36
2017-07-03T06:43:57.150Z,1013.39
2017-07-03T06:44:53.383Z,1013.43
2017-07-03T06:45:49.614Z,1013.37
2017-07-03T06:46:45.875Z,1013.41
2017-07-03T06:47:42.101Z,1013.41
2017-07-03T06:48:38.323Z,1013.42
2017-07-03T06:49:34.562Z,1013.48
2017-07-03T06:50:30.807Z,1013.40
2017-07-03T06:51:27.056Z,1013.37
2017-07-03T06:52:23.315Z,1013.41
2017-07-03T06:53:19.551Z,1013.42
2017-07-03T06:54:15.783Z,1013.38
2017-07-03T06:55:12.050Z,1013.39
2017-07-03T06:56:08.277Z,1013.37
2017-07-03T06:57:04.507Z,1013.31
2017-07-03T06:58:00.755Z,1013.23
2017-07-03T06:58:56.978Z,1013.40
2017-07-03T06:59:53.206Z,1013.26
2017-07-03T07:00:49.453Z,1013.32
2017-07-03T07:01:45.699Z,1013.29
2017-07-03T07:02:41.958Z,1013.25
2017-07-03T07:03:38.254Z,1013.25
2017-07-03T07:04:34.481Z,1013.26
2017-07-03T07:05:30.706Z,1013.32
2017-07-03T07:06:26.946Z,1013.28
2017-07-03T07:07:23.195Z,1013.30
2017-07-03T07:08:19.442Z,1013.27
2017-07-03T07:09:15.684Z,1013.23
2017-07-03T07:10:11.946Z,1013.22
2017-07-03T07:11:08.180Z,1013.25
2017-07-03T07:12:04.418Z,1013.27
2017-07-03T07:13:00.674Z,1013.22
2017-07-03T07:13:56.912Z,1013.35
2017-07-03T07:14:53.137Z,1013.29
2017-07-03T07:15:49.457Z,1013.24
2017-07-03T07:16:45.674Z,1013.24
2017-07-03T07:17:41.908Z,1013.29
2017-07-03T07:18:38.155Z,1013.34
2017-07-03T07:19:34.477Z,1013.22
2017-07-03T07:20:30.751Z,1013.29
2017-07-03T07:21:26.984Z,1013.27
2017-07-03T07:22:23.214Z,1013.31
2017-07-03T07:23:19.475Z,1013.29
2017-07-03T07:24:15.751Z,1013.33
2017-07-03T07:25:11.987Z,1013.37
2017-07-03T07:26:08.222Z,1013.28
2017-07-03T07:27:04.450Z,1013.37
2017-07-03T07:28:00.686Z,1013.37
2017-07-03T07:28:56.931Z,1013.42
2017-07-03T07:29:53.162Z,1013.40
2017-07-03T07:30:49.387Z,1013.37
2017-07-03T07:31:45.624Z,1013.41
2017-07-03T07:32:41.862Z,1013.41
2017-07-03T07:33:38.121Z,1013.36
2017-07-03T07:34:34.355Z,1013.43
2017-07-03T07:35:30.616Z,1013.44
2017-07-03T07:36:26.837Z,1013.48
2017-07-03T07:37:23.103Z,1013.47
2017-07-03T07:38:19.438Z,1013.45
2017-07-03T07:39:15.695Z,1013.50
2017-07-03T07:40:11.934Z,1013.44
2017-07-03T07:41:08.174Z,1013.43
2017-07-03T07:42:04.402Z,1013.47
2017-07-03T07:43:00.639Z,1013.41
2017-07-03T07:43:56.898Z,1013.41
2017-07-03T07:44:53.151Z,1013.36
2017-07-03T07:45:49.395Z,1013.36
2017-07-03T07:46:45.642Z,1013.35
2017-07-03T07:47:41.863Z,1013.39
2017-07-03T07:48:38.101Z,1013.43
2017-07-03T07:49:34.339Z,1013.39
2017-07-03T07:50:30.574Z,1013.37
2017-07-03T07:51:26.826Z,1013.44
2017-07-03T07:52:23.050Z,1013.37
2017-07-03T07:53:19.295Z,1013.32
2017-07-03T07:54:15.547Z,1013.35
2017-07-03T07:55:11.798Z,1013.41
2017-07-03T07:56:08.026Z,1013.36
2017-07-03T07:57:04.279Z,1013.40
2017-07-03T07:58:00.574Z,1013.39
2017-07-03T07:58:56.803Z,1013.35
2017-07-03T07:59:53.035Z,1013.34
2017-07-03T08:00:49.274Z,1013.41
2017-07-03T08:01:45.506Z,1013.36
2017-07-03T08:02:41.751Z,1013.30
2017-07-03T08:03:37.994Z,1013.35
2017-07-03T08:04:34.235Z,1013.42
2017-07-03T08:05:30.495Z,1013.33
2017-07-03T08:06:26.729Z,1013.29
2017-07-03T08:07:22.961Z,1013.25
2017-07-03T08:08:19.191Z,1013.34
2017-07-03T08:09:15.431Z,1013.37
2017-07-03T08:10:11.667Z,1013.31
2017-07-03T08:11:07.915Z,1013.30
2017-07-03T08:12:04.154Z,1013.33
2017-07-03T08:13:00.394Z,1013.34
2017-07-03T08:13:56.623Z,1013.27
2017-07-03T08:14:52.861Z,1013.26
2017-07-03T08:15:49.106Z,1013.31
2017-07-03T08:16:45.342Z,1013.30
2017-07-03T08:17:41.571Z,1013.23
2017-07-03T08:18:37.806Z,1013.30
2017-07-03T08:19:34.036Z,1013.32
2017-07-03T08:20:30.274Z,1013.23
2017-07-03T08:21:26.514Z,1013.26
2017-07-03T08:22:22.737Z,1013.28
2017-07-03T08:23:18.970Z,1013.18
2017-07-03T08:24:15.195Z,1013.17
2017-07-03T08:25:11.430Z,1013.16
2017-07-03T08:26:07.670Z,1013.21
2017-07-03T08:27:03.922Z,1013.17
2017-07-03T08:28:00.170Z,1013.24
2017-07-03T08:28:56.403Z,1013.23
2017-07-03T08:29:52.639Z,1013.19
2017-07-03T08:30:48.874Z,1013.25
2017-07-03T08:31:45.139Z,1013.23
2017-07-03T08:32:41.386Z,1013.16
2017-07-03T08:33:37.626Z,1013.18
2017-07-03T08:34:33.872Z,1013.20
2017-07-03T08:35:30.106Z,1013.21
2017-07-03T08:36:26.352Z,1013.21
2017-07-03T08:37:22.598Z,1013.21
2017-07-03T08:38:18.842Z,1013.21
2017-07-03T08:39:15.106Z,1013.25
2017-07-03T08:40:11.334Z,1013.21
2017-07-03T08:41:07.565Z,1013.17
2017-07-03T08:42:03.815Z,1013.18
2017-07-03T08:43:00.055Z,1013.15
2017-07-03T08:43:56.283Z,1013.22
2017-07-03T08:44:52.522Z,1013.16
2017-07-03T08:45:48.755Z,1013.16
2017-07-03T08:46:45.002Z,1013.17
2017-07-03T08:47:41.263Z,1013.13
2017-07-03T08:48:37.494Z,1013.11
2017-07-03T08:49:33.733Z,1013.12
2017-07-03T08:50:29.973Z,1013.15
2017-07-03T08:51:26.217Z,1013.17
2017-07-03T08:52:22.446Z,1013.12
2017-07-03T08:53:18.694Z,1013.04
2017-07-03T08:54:14.927Z,1012.98
2017-07-03T08:55:11.169Z,1012.98
2017-07-03T08:56:07.406Z,1012.99
2017-07-03T08:57:03.645Z,1013.06
2017-07-03T08:57:59.895Z,1013.04
2017-07-03T08:58:56.129Z,1013.02
2017-07-03T08:59:52.367Z,1013.04
2017-07-03T09:00:48.598Z,1013.01
2017-07-03T09:01:44.820Z,1012.98
2017-07-03T09:02:41.055Z,1012.92
2017-07-03T09:03:37.313Z,1012.84
2017-07-03T09:04:33.546Z,1012.88
2017-07-03T09:05:29.771Z,1012.90
2017-07-03T09:06:26.007Z,1012.92
2017-07-03T09:07:22.259Z,1012.86
2017-07-03T09:08:18.520Z,1012.88
2017-07-03T09:09:14.771Z,1012.84
2017-07-03T09:10:11.018Z,1012.94
2017-07-03T09:11:07.242Z,1012.88
2017-07-03T09:12:03.463Z,1012.86
2017-07-03T09:12:59.700Z,1012.82
2017-07-03T09:13:56.139Z,1012.89
2017-07-03T09:14:52.402Z,1012.94
2017-07-03T09:15:48.641Z,1012.86
2017-07-03T09:16:44.881Z,1012.81
2017-07-03T09:17:41.120Z,1012.80
2017-07-03T09:18:37.366Z,1012.83
2017-07-03T09:19:33.599Z,1012.75
2017-07-03T09:20:29.837Z,1012.80
2017-07-03T09:21:26.062Z,1012.83
2017-07-03T09:22:22.298Z,1012.74
2017-07-03T09:23:18.526Z,1012.73
2017-07-03T09:24:14.782Z,1012.75
2017-07-03T09:25:11.007Z,1012.73
2017-07-03T09:26:07.238Z,1012.78
2017-07-03T09:27:03.473Z,1012.78
2017-07-03T09:27:59.707Z,1012.76
2017-07-03T09:28:55.943Z,1012.74
2017-07-03T09:29:52.203Z,1012.75
2017-07-03T09:30:48.441Z,1012.68
2017-07-03T09:31:44.666Z,1012.66
2017-07-03T09:32:40.903Z,1012.69
2017-07-03T09:33:37.142Z,1012.71
2017-07-03T09:34:33.359Z,1012.71
2017-07-03T09:35:29.616Z,1012.68
2017-07-03T09:36:25.874Z,1012.73
2017-07-03T09:37:22.106Z,1012.70
2017-07-03T09:38:18.330Z,1012.66
2017-07-03T09:39:14.555Z,1012.74
2017-07-03T09:40:10.815Z,1012.54
2017-07-03T09:41:07.066Z,1012.55
2017-07-03T09:42:03.302Z,1012.63
2017-07-03T09:42:59.530Z,1012.55
2017-07-03T09:43:55.760Z,1012.57
2017-07-03T09:44:51.998Z,1012.54
2017-07-03T09:45:48.255Z,1012.60
2017-07-03T09:46:44.483Z,1012.61
2017-07-03T09:47:40.707Z,1012.53
2017-07-03T09:48:36.931Z,1012.54
2017-07-03T09:49:33.151Z,1012.64
2017-07-03T09:50:29.422Z,1012.62
2017-07-03T09:51:25.662Z,1012.55
2017-07-03T09:52:21.924Z,1012.60
2017-07-03T09:53:18.158Z,1012.54
2017-07-03T09:54:14.386Z,1012.50
2017-07-03T09:55:10.634Z,1012.47
2017-07-03T09:56:06.885Z,1012.50
2017-07-03T09:57:03.115Z,1012.50
2017-07-03T09:57:59.338Z,1012.47
2017-07-03T09:58:55.574Z,1012.45
2017-07-03T09:59:51.814Z,1012.56
2017-07-03T10:00:48.050Z,1012.51
2017-07-03T10:01:44.291Z,1012.52
2017-07-03T10:02:40.533Z,1012.51
2017-07-03T10:03:36.755Z,1012.40
2017-07-03T10:04:32.995Z,1012.49
2017-07-03T10:05:30.227Z,1012.37
2017-07-03T10:06:26.455Z,1012.44
2017-07-03T10:07:22.702Z,1012.43
2017-07-03T10:08:18.938Z,1012.47
2017-07-03T10:09:15.179Z,1012.42
2017-07-03T10:10:11.430Z,1012.42
2017-07-03T10:11:07.671Z,1012.48
2017-07-03T10:12:03.914Z,1012.45
2017-07-03T10:13:00.148Z,1012.39
2017-07-03T10:13:56.371Z,1012.50
2017-07-03T10:14:52.608Z,1012.50
2017-07-03T10:15:48.858Z,1012.44
2017-07-03T10:16:45.098Z,1012.48
2017-07-03T10:17:41.322Z,1012.41
2017-07-03T10:18:37.555Z,1012.40
2017-07-03T10:19:33.778Z,1012.32
2017-07-03T10:20:30.120Z,1012.28
2017-07-03T10:21:26.357Z,1012.26
2017-07-03T10:22:22.612Z,1012.23
2017-07-03T10:23:18.856Z,1012.25
2017-07-03T10:24:15.094Z,1012.24
2017-07-03T10:25:11.322Z,1012.21
2017-07-03T10:26:07.554Z,1012.20
2017-07-03T10:27:03.786Z,1012.23
2017-07-03T10:28:00.027Z,1012.21
2017-07-03T10:28:56.258Z,1012.17
2017-07-03T10:29:52.487Z,1012.08
2017-07-03T10:30:48.723Z,1012.17
2017-07-03T10:31:44.969Z,1012.14
2017-07-03T10:32:41.221Z,1012.10
2017-07-03T10:33:37.447Z,1012.04
2017-07-03T10:34:33.678Z,1011.99
2017-07-03T10:35:29.907Z,1012.02
2017-07-03T10:36:26.178Z,1011.98
2017-07-03T10:37:22.413Z,1012.03
2017-07-03T10:38:18.658Z,1012.04
2017-07-03T10:39:14.882Z,1012.06
2017-07-03T10:40:11.117Z,1012.07
2017-07-03T10:41:07.350Z,1011.93
2017-07-03T10:42:03.610Z,1011.95
2017-07-03T10:42:59.843Z,1011.96
2017-07-03T10:43:56.088Z,1011.85
2017-07-03T10:44:52.322Z,1011.98
2017-07-03T10:45:48.555Z,1011.92
2017-07-03T10:46:44.802Z,1011.87
2017-07-03T10:47:41.027Z,1011.86
2017-07-03T10:48:37.271Z,1011.95
2017-07-03T10:49:33.522Z,1011.88
2017-07-03T10:50:29.760Z,1011.92
2017-07-03T10:51:26.003Z,1011.84
2017-07-03T10:52:22.245Z,1011.89
2017-07-03T10:53:18.495Z,1011.80
2017-07-03T10:54:14.735Z,1011.89
2017-07-03T10:55:10.986Z,1011.88
2017-07-03T10:56:07.215Z,1011.78
2017-07-03T10:57:03.467Z,1011.82
2017-07-03T10:57:59.703Z,1011.80
2017-07-03T10:58:55.927Z,1011.78
2017-07-03T10:59:52.166Z,1011.76
2017-07-03T11:00:48.418Z,1011.82
2017-07-03T11:01:44.679Z,1011.69
2017-07-03T11:02:40.902Z,1011.71
2017-07-03T11:03:37.143Z,1011.77
2017-07-03T11:04:33.382Z,1011.75
2017-07-03T11:05:29.626Z,1011.65
2017-07-03T11:06:25.869Z,1011.76
2017-07-03T11:07:22.118Z,1011.74
2017-07-03T11:08:18.354Z,1011.76
2017-07-03T11:09:14.582Z,1011.64
2017-07-03T11:10:10.811Z,1011.64
2017-07-03T11:11:07.071Z,1011.65
2017-07-03T11:12:03.302Z,1011.65
2017-07-03T11:12:59.561Z,1011.73
2017-07-03T11:13:55.791Z,1011.70
2017-07-03T11:14:52.030Z,1011.60
2017-07-03T11:15:48.267Z,1011.60
2017-07-03T11:16:44.514Z,1011.63
2017-07-03T11:17:40.759Z,1011.60
2017-07-03T11:18:36.983Z,1011.61
2017-07-03T11:19:33.207Z,1011.56
2017-07-03T11:20:29.447Z,1011.53